Time;durP1;ratioP1;P1;durP2;ratioP2;P2;SDS_P1;SDS_P2;PMS_P1;PMS_P2;Temp;Humidity;BMP_temperature;BMP_pressure;BME280_temperature;BME280_humidity;BME280_pressure;Samples;Min_cycle;Max_cycle;Signal;HPM_P1;HPM_P2
2022/07/13 00:02:13;;;;;;;37.15;20.95;;;26.10;99.90;;;;;;5036728;28;20413;-67
2022/07/13 00:04:40;;;;;;;39.78;22.35;;;26.10;99.90;;;;;;5036829;28;20040;-68
2022/07/13 00:07:07;;;;;;;40.90;25.08;;;26.10;99.90;;;;;;5036600;28;20421;-69
2022/07/13 00:09:33;;;;;;;46.40;24.25;;;26.10;99.90;;;;;;5036495;28;20079;-68
2022/07/13 00:12:00;;;;;;;37.15;24.77;;;26.10;99.90;;;;;;5036525;28;20075;-67
2022/07/13 00:14:26;;;;;;;39.67;24.83;;;26.10;99.90;;;;;;5038914;28;20083;-69
2022/07/13 00:16:53;;;;;;;39.38;25.05;;;26.10;99.90;;;;;;5056261;28;20021;-69
2022/07/13 00:19:19;;;;;;;41.20;24.20;;;26.10;99.90;;;;;;5056492;28;20204;-69
2022/07/13 00:21:46;;;;;;;43.83;24.73;;;26.10;99.90;;;;;;5037147;28;20022;-69
2022/07/13 00:24:15;;;;;;;36.63;24.35;;;26.10;99.90;;;;;;5036475;28;20470;-70
2022/07/13 00:26:41;;;;;;;39.83;25.58;;;26.10;99.90;;;;;;5036149;28;20030;-69
2022/07/13 00:29:08;;;;;;;39.30;25.25;;;26.00;99.90;;;;;;5044048;28;20078;-69
2022/07/13 00:31:34;;;;;;;38.35;25.75;;;26.00;99.90;;;;;;5056143;28;20037;-69
2022/07/13 00:34:01;;;;;;;34.28;23.67;;;26.10;99.90;;;;;;5056071;28;20428;-69
2022/07/13 00:36:27;;;;;;;29.23;23.38;;;26.20;99.90;;;;;;5055953;28;20127;-69
2022/07/13 00:38:54;;;;;;;42.17;26.58;;;26.20;99.90;;;;;;5055801;28;20024;-70
2022/07/13 00:41:20;;;;;;;41.92;26.80;;;26.20;99.90;;;;;;5055935;28;20025;-70
2022/07/13 00:43:47;;;;;;;41.65;26.67;;;26.20;99.90;;;;;;5055846;28;20013;-69
2022/07/13 00:46:14;;;;;;;34.28;27.15;;;26.30;99.90;;;;;;5055661;28;20019;-69
2022/07/13 00:48:42;;;;;;;38.38;27.02;;;26.30;99.90;;;;;;5055773;28;20021;-70
2022/07/13 00:51:09;;;;;;;46.67;28.10;;;26.30;99.90;;;;;;5055628;28;20099;-70
2022/07/13 00:53:39;;;;;;;41.83;27.65;;;26.30;99.90;;;;;;5055492;28;20385;-70
2022/07/13 00:56:06;;;;;;;54.70;31.33;;;26.30;99.90;;;;;;5048084;28;20080;-69
2022/07/13 00:58:33;;;;;;;48.40;31.13;;;26.30;99.90;;;;;;5047202;28;20470;-69
2022/07/13 01:01:00;;;;;;;40.58;30.58;;;26.20;99.90;;;;;;5055264;28;20111;-69
2022/07/13 01:03:26;;;;;;;47.63;30.15;;;26.20;99.90;;;;;;5055599;28;20017;-69
2022/07/13 01:05:53;;;;;;;42.40;30.05;;;26.20;99.90;;;;;;5055333;28;20045;-69
2022/07/13 01:08:22;;;;;;;53.85;29.92;;;26.20;99.90;;;;;;5055258;28;20048;-69
2022/07/13 01:10:48;;;;;;;44.65;29.55;;;26.20;99.90;;;;;;5055358;28;20033;-69
2022/07/13 01:13:16;;;;;;;45.28;30.17;;;26.20;99.90;;;;;;5055465;28;20029;-70
2022/07/13 01:15:44;;;;;;;43.00;31.02;;;26.30;99.90;;;;;;5055183;28;20496;-69
2022/07/13 01:18:13;;;;;;;36.92;28.58;;;26.30;99.90;;;;;;5055402;28;20021;-69
2022/07/13 01:20:42;;;;;;;39.22;29.20;;;26.30;99.90;;;;;;5055161;28;20037;-70
2022/07/13 01:23:12;;;;;;;40.15;28.35;;;26.40;99.90;;;;;;5053811;28;20040;-70
2022/07/13 01:25:40;;;;;;;42.60;30.67;;;26.40;99.90;;;;;;5055125;28;20021;-69
2022/07/13 01:28:06;;;;;;;38.53;29.25;;;26.40;99.90;;;;;;5053622;28;20419;-69
2022/07/13 01:30:33;;;;;;;74.45;48.20;;;26.50;99.90;;;;;;5054940;28;20025;-69
2022/07/13 01:33:00;;;;;;;64.43;44.17;;;26.50;99.90;;;;;;5054895;28;20123;-69
2022/07/13 01:35:27;;;;;;;66.30;48.28;;;26.50;99.90;;;;;;5054729;28;20048;-69
2022/07/13 01:37:54;;;;;;;52.97;37.88;;;26.40;99.90;;;;;;5054993;28;20029;-69
2022/07/13 01:40:21;;;;;;;48.30;35.92;;;26.50;99.90;;;;;;5054678;28;20039;-69
2022/07/13 01:42:50;;;;;;;48.97;34.60;;;26.50;99.90;;;;;;5054549;28;20063;-69
2022/07/13 01:45:22;;;;;;;53.42;33.88;;;26.50;99.90;;;;;;5054888;28;20029;-69
2022/07/13 01:47:50;;;;;;;45.10;34.45;;;26.50;99.90;;;;;;5054726;28;20116;-69
2022/07/13 01:50:20;;;;;;;43.05;31.17;;;26.50;99.90;;;;;;5054713;28;20037;-69
2022/07/13 01:52:47;;;;;;;42.47;33.33;;;26.50;99.90;;;;;;5054961;28;20032;-70
2022/07/13 01:55:14;;;;;;;43.88;31.92;;;26.50;99.90;;;;;;5054909;28;20027;-69
2022/07/13 01:57:41;;;;;;;48.45;34.67;;;26.60;99.90;;;;;;5054483;28;20021;-70
2022/07/13 02:00:25;;;;;;;55.10;36.28;;;26.60;99.90;;;;;;5054574;28;20078;-69
2022/07/13 02:02:51;;;;;;;52.20;35.63;;;26.60;99.90;;;;;;5054505;28;20431;-69
2022/07/13 02:05:18;;;;;;;50.55;35.97;;;26.70;99.90;;;;;;5054190;28;20041;-70
2022/07/13 02:07:45;;;;;;;54.38;36.78;;;26.70;99.90;;;;;;5054241;28;20102;-70
2022/07/13 02:10:13;;;;;;;61.35;40.63;;;26.70;99.90;;;;;;5053501;28;20131;-70
2022/07/13 02:12:40;;;;;;;58.88;40.55;;;26.80;99.90;;;;;;5054246;28;20025;-69
2022/07/13 02:15:09;;;;;;;54.22;37.83;;;26.80;99.90;;;;;;5054164;28;20462;-69
2022/07/13 02:17:35;;;;;;;65.95;44.10;;;26.90;99.90;;;;;;5053833;28;20366;-68
2022/07/13 02:20:02;;;;;;;61.78;41.13;;;26.90;99.90;;;;;;5053948;28;20397;-69
2022/07/13 02:22:41;;;;;;;62.72;40.13;;;26.90;99.90;;;;;;5052559;28;20024;-69
2022/07/13 02:25:09;;;;;;;57.60;38.55;;;26.90;99.90;;;;;;5054136;28;20079;-69
2022/07/13 02:27:36;;;;;;;53.65;37.67;;;26.90;99.90;;;;;;5053911;28;20108;-69
2022/07/13 02:30:03;;;;;;;64.03;38.03;;;26.90;99.90;;;;;;5053792;28;20025;-68
2022/07/13 02:32:30;;;;;;;52.13;36.53;;;27.00;99.90;;;;;;5053575;28;20123;-71
2022/07/13 02:34:56;;;;;;;46.33;33.75;;;27.00;99.90;;;;;;5053856;28;20017;-69
2022/07/13 02:37:23;;;;;;;48.20;35.67;;;27.10;99.90;;;;;;5053737;28;20017;-70
2022/07/13 02:39:51;;;;;;;55.03;38.00;;;27.10;99.90;;;;;;5053550;28;20539;-69
2022/07/13 02:42:18;;;;;;;51.50;39.25;;;27.10;99.90;;;;;;5053580;28;20059;-70
2022/07/13 02:44:44;;;;;;;51.40;39.63;;;27.10;99.90;;;;;;5053620;28;20583;-69
2022/07/13 02:47:11;;;;;;;59.10;38.22;;;27.00;99.90;;;;;;5053638;28;20033;-70
2022/07/13 02:49:38;;;;;;;54.97;40.35;;;27.00;99.90;;;;;;5053556;28;20043;-69
2022/07/13 02:52:05;;;;;;;58.08;38.78;;;27.10;99.90;;;;;;5053510;28;20032;-69
2022/07/13 02:54:31;;;;;;;53.25;39.25;;;27.10;99.90;;;;;;5053407;28;20028;-70
2022/07/13 02:56:58;;;;;;;57.60;43.17;;;27.10;99.90;;;;;;5053482;28;20102;-70
2022/07/13 02:59:25;;;;;;;60.08;42.30;;;27.20;99.90;;;;;;5053454;28;20021;-69
2022/07/13 03:01:51;;;;;;;59.20;44.00;;;27.20;99.90;;;;;;5053129;28;20486;-70
2022/07/13 03:04:18;;;;;;;63.13;43.63;;;27.20;99.90;;;;;;5053256;28;20025;-69
2022/07/13 03:06:45;;;;;;;58.28;41.88;;;27.30;99.90;;;;;;5053237;28;20053;-70
2022/07/13 03:09:11;;;;;;;60.28;42.55;;;27.40;99.90;;;;;;5052986;28;20082;-69
2022/07/13 03:11:38;;;;;;;51.35;40.38;;;27.40;99.90;;;;;;5053181;28;20013;-69
2022/07/13 03:14:04;;;;;;;58.72;40.75;;;27.40;99.90;;;;;;5053213;28;20017;-69
2022/07/13 03:16:32;;;;;;;53.00;41.28;;;27.40;99.90;;;;;;5052981;28;20442;-68
2022/07/13 03:18:59;;;;;;;49.75;37.03;;;27.40;99.90;;;;;;5053071;28;20025;-67
2022/07/13 03:21:27;;;;;;;52.40;36.30;;;27.50;99.90;;;;;;5054552;28;20517;-67
2022/07/13 03:23:54;;;;;;;59.83;35.65;;;27.60;99.90;;;;;;5038027;28;20463;-68
2022/07/13 03:26:21;;;;;;;59.63;35.53;;;27.60;99.90;;;;;;5037409;28;20025;-71
2022/07/13 03:28:48;;;;;;;56.05;33.20;;;27.60;99.90;;;;;;5037229;28;20025;-69
2022/07/13 03:31:14;;;;;;;56.08;35.80;;;27.70;99.90;;;;;;5037015;28;20478;-69
2022/07/13 03:33:41;;;;;;;57.50;34.47;;;27.80;99.90;;;;;;5046388;28;20071;-69
2022/07/13 03:36:08;;;;;;;48.78;32.75;;;27.90;99.90;;;;;;5057087;28;20021;-70
2022/07/13 03:38:36;;;;;;;60.70;38.30;;;28.00;99.90;;;;;;5056831;28;20036;-71
2022/07/13 03:41:03;;;;;;;55.17;33.60;;;28.00;99.90;;;;;;5057032;28;20028;-70
2022/07/13 03:43:30;;;;;;;50.10;32.22;;;28.10;99.90;;;;;;5056839;28;20029;-70
2022/07/13 03:45:57;;;;;;;48.95;32.03;;;28.20;99.90;;;;;;5056769;28;20068;-68
2022/07/13 03:48:24;;;;;;;42.33;29.33;;;28.20;99.90;;;;;;5056780;28;20029;-69
2022/07/13 03:50:50;;;;;;;49.10;29.38;;;28.40;99.90;;;;;;5056759;28;20025;-68
2022/07/13 03:53:17;;;;;;;47.95;29.73;;;28.40;99.90;;;;;;5056925;28;20104;-69
2022/07/13 03:55:44;;;;;;;38.47;28.23;;;28.50;99.90;;;;;;5056948;28;20104;-70
2022/07/13 03:58:12;;;;;;;49.72;29.55;;;28.60;99.90;;;;;;5047154;28;20474;-69
2022/07/13 04:00:38;;;;;;;40.05;27.33;;;28.70;99.90;;;;;;5051271;28;20028;-68
2022/07/13 04:03:05;;;;;;;32.50;16.80;;;28.80;99.90;;;;;;5056947;28;20021;-67
2022/07/13 04:05:32;;;;;;;27.50;16.30;;;28.90;99.90;;;;;;5056619;28;20060;-67
2022/07/13 04:07:58;;;;;;;25.50;14.95;;;29.00;99.90;;;;;;5056871;28;20017;-68
2022/07/13 04:10:25;;;;;;;25.67;15.20;;;29.00;99.90;;;;;;5056709;28;20454;-68
2022/07/13 04:12:51;;;;;;;22.15;15.05;;;29.00;99.90;;;;;;5057009;28;20029;-70
2022/07/13 04:15:18;;;;;;;28.92;15.32;;;29.10;99.90;;;;;;5056998;28;20024;-71
2022/07/13 04:17:44;;;;;;;28.23;16.92;;;29.10;99.90;;;;;;5056614;28;20013;-68
2022/07/13 04:20:11;;;;;;;27.48;17.35;;;29.20;99.90;;;;;;5056816;28;20025;-68
2022/07/13 04:22:38;;;;;;;28.90;16.40;;;29.30;99.90;;;;;;5056633;28;20066;-68
2022/07/13 04:25:05;;;;;;;28.63;17.35;;;29.30;99.90;;;;;;5054721;28;20040;-68
2022/07/13 04:27:32;;;;;;;24.88;16.52;;;29.40;99.90;;;;;;5051952;28;20394;-68
2022/07/13 04:29:58;;;;;;;26.13;15.45;;;29.50;99.90;;;;;;5056508;28;20021;-69
2022/07/13 04:32:25;;;;;;;27.02;16.35;;;29.50;99.90;;;;;;5055541;28;20021;-69
2022/07/13 04:34:51;;;;;;;21.92;13.88;;;29.50;99.90;;;;;;5056175;28;20021;-73
2022/07/13 04:37:19;;;;;;;26.23;14.13;;;29.50;99.90;;;;;;5036576;28;20017;-71
2022/07/13 04:39:45;;;;;;;23.77;14.57;;;29.50;99.90;;;;;;5036051;28;20033;-72
2022/07/13 04:42:12;;;;;;;26.02;13.60;;;29.50;99.90;;;;;;5035955;28;20026;-71
2022/07/13 04:44:38;;;;;;;19.33;12.38;;;29.60;99.90;;;;;;5036075;28;20061;-71
2022/07/13 04:47:06;;;;;;;28.30;14.52;;;29.60;99.90;;;;;;5036350;28;20049;-71
2022/07/13 04:49:35;;;;;;;27.08;12.85;;;29.60;99.90;;;;;;5035963;28;20032;-72
2022/07/13 04:52:02;;;;;;;19.48;9.85;;;29.60;99.90;;;;;;5035742;28;20025;-70
2022/07/13 04:54:28;;;;;;;19.08;12.82;;;29.70;99.90;;;;;;5035653;28;20466;-70
2022/07/13 04:56:55;;;;;;;19.13;10.85;;;29.70;99.90;;;;;;5035882;28;20060;-72
2022/07/13 04:59:21;;;;;;;16.20;9.43;;;29.70;99.90;;;;;;5035842;28;20041;-72
2022/07/13 05:01:48;;;;;;;17.42;9.20;;;29.80;99.90;;;;;;5035837;28;20022;-71
2022/07/13 05:04:14;;;;;;;19.95;10.30;;;29.70;99.90;;;;;;5035797;28;20021;-69
2022/07/13 05:06:41;;;;;;;16.73;9.00;;;29.80;99.90;;;;;;5035627;28;20099;-74
2022/07/13 05:09:07;;;;;;;17.27;8.55;;;29.70;99.90;;;;;;5038615;28;20443;-72
2022/07/13 05:11:34;;;;;;;13.73;8.85;;;29.80;99.90;;;;;;5035685;28;20018;-70
2022/07/13 05:14:02;;;;;;;21.20;10.43;;;29.80;99.90;;;;;;5035409;28;20013;-73
2022/07/13 05:16:28;;;;;;;13.63;8.85;;;29.90;99.90;;;;;;5034859;28;20018;-72
2022/07/13 05:18:57;;;;;;;15.02;8.77;;;30.00;99.90;;;;;;5035219;28;20022;-72
2022/07/13 05:21:23;;;;;;;12.73;8.10;;;30.10;99.90;;;;;;5035296;28;20497;-75
2022/07/13 05:23:50;;;;;;;11.88;7.53;;;30.20;99.90;;;;;;5034821;28;20025;-74
2022/07/13 05:26:16;;;;;;;13.45;8.25;;;30.30;99.90;;;;;;5038342;28;20017;-74
2022/07/13 05:28:43;;;;;;;12.93;8.10;;;30.40;99.90;;;;;;5054960;28;20410;-75
2022/07/13 05:31:09;;;;;;;11.88;8.05;;;30.50;99.90;;;;;;5054888;28;20031;-74
2022/07/13 05:33:36;;;;;;;22.02;10.55;;;30.60;99.90;;;;;;5050821;28;20611;-75
2022/07/13 05:36:04;;;;;;;14.90;9.13;;;30.60;99.90;;;;;;5034899;28;20324;-75
2022/07/13 05:38:31;;;;;;;17.85;10.57;;;30.60;99.90;;;;;;5034701;28;20067;-75
2022/07/13 05:40:57;;;;;;;19.77;10.45;;;30.70;99.90;;;;;;5034027;28;20413;-74
2022/07/13 05:43:24;;;;;;;18.08;10.25;;;30.60;99.90;;;;;;5034936;28;20021;-76
2022/07/13 05:45:51;;;;;;;18.48;10.13;;;30.60;99.90;;;;;;5045069;28;20171;-77
2022/07/13 05:48:18;;;;;;;16.98;10.27;;;30.60;99.90;;;;;;5046467;28;20439;-77
2022/07/13 05:50:44;;;;;;;18.20;9.80;;;30.60;99.90;;;;;;5034528;28;20026;-78
2022/07/13 05:53:11;;;;;;;15.05;10.07;;;30.50;99.90;;;;;;5041436;28;20025;-75
2022/07/13 05:55:37;;;;;;;15.80;10.90;;;30.40;99.90;;;;;;5054350;28;20028;-73
2022/07/13 05:58:04;;;;;;;14.63;8.95;;;30.40;99.90;;;;;;5054432;28;20374;-79
2022/07/13 06:00:31;;;;;;;16.25;10.15;;;30.40;99.90;;;;;;5041010;28;20021;-77
2022/07/13 06:02:57;;;;;;;14.32;9.55;;;30.30;99.90;;;;;;5040950;28;20021;-75
2022/07/13 06:05:24;;;;;;;16.25;8.20;;;30.40;99.90;;;;;;5054039;28;20044;-75
2022/07/13 06:07:50;;;;;;;14.10;6.65;;;30.40;99.90;;;;;;5054267;28;20469;-73
2022/07/13 06:10:17;;;;;;;12.70;7.53;;;30.40;99.90;;;;;;5054075;28;20024;-75
2022/07/13 06:12:43;;;;;;;14.48;7.03;;;30.30;99.90;;;;;;5054161;28;20138;-74
2022/07/13 06:15:10;;;;;;;12.50;6.45;;;30.40;99.90;;;;;;5053349;28;20419;-73
2022/07/13 06:17:37;;;;;;;12.52;6.57;;;30.40;99.90;;;;;;5044907;28;20100;-75
2022/07/13 06:20:04;;;;;;;14.82;7.25;;;30.30;99.90;;;;;;5034168;28;20025;-73
2022/07/13 06:22:30;;;;;;;15.07;6.85;;;30.40;99.90;;;;;;5038946;28;20311;-75
2022/07/13 06:24:57;;;;;;;14.90;7.10;;;30.40;99.90;;;;;;5045108;28;20025;-72
2022/07/13 06:27:23;;;;;;;15.77;7.65;;;30.40;99.90;;;;;;5043332;28;20016;-73
2022/07/13 06:29:50;;;;;;;15.65;6.75;;;30.40;99.90;;;;;;5043679;28;20034;-74
2022/07/13 06:32:19;;;;;;;11.88;7.32;;;30.40;99.90;;;;;;5042067;28;20509;-74
2022/07/13 06:34:46;;;;;;;13.02;7.47;;;30.40;99.90;;;;;;5042821;28;20028;-73
2022/07/13 06:37:12;;;;;;;14.00;6.80;;;30.40;99.90;;;;;;5043981;28;20041;-75
2022/07/13 06:39:39;;;;;;;12.32;7.80;;;30.40;99.90;;;;;;5042078;28;20029;-73
2022/07/13 06:42:05;;;;;;;12.60;8.02;;;30.50;99.90;;;;;;5041605;28;20029;-73
2022/07/13 06:44:33;;;;;;;17.48;8.45;;;30.50;99.90;;;;;;5049884;28;20491;-74
2022/07/13 06:47:00;;;;;;;13.35;7.35;;;30.60;99.90;;;;;;5043751;28;20029;-75
2022/07/13 06:49:27;;;;;;;13.23;7.63;;;30.60;99.90;;;;;;5046234;28;20032;-76
2022/07/13 06:51:56;;;;;;;19.38;7.28;;;30.60;99.90;;;;;;5044247;28;20025;-71
2022/07/13 06:54:23;;;;;;;12.38;7.38;;;30.60;99.90;;;;;;5042363;28;20036;-72
2022/07/13 06:59:19;;;;;;;13.77;8.07;;;30.50;99.90;;;;;;5042406;28;20387;-74
2022/07/13 07:01:46;;;;;;;13.40;7.85;;;30.60;99.90;;;;;;5044147;28;20017;-72
2022/07/13 07:04:12;;;;;;;12.60;7.40;;;30.60;99.90;;;;;;5044755;28;20036;-73
2022/07/13 07:06:40;;;;;;;11.77;7.35;;;30.60;99.90;;;;;;5041200;28;20085;-72
2022/07/13 07:09:09;;;;;;;12.07;7.35;;;30.60;99.90;;;;;;5042142;28;20056;-71
2022/07/13 07:11:35;;;;;;;9.98;7.65;;;30.60;99.90;;;;;;5035943;28;20417;-74
2022/07/13 07:14:02;;;;;;;17.73;7.90;;;30.70;99.90;;;;;;5033562;28;20045;-70
2022/07/13 07:16:28;;;;;;;10.02;6.68;;;30.70;99.90;;;;;;5037982;28;20029;-67
2022/07/13 07:18:55;;;;;;;11.52;6.63;;;30.70;99.90;;;;;;5041922;28;20059;-70
2022/07/13 07:21:21;;;;;;;13.15;7.03;;;30.80;99.90;;;;;;5042380;28;20426;-70
2022/07/13 07:23:48;;;;;;;10.57;6.40;;;30.80;99.90;;;;;;5049097;28;20021;-69
2022/07/13 07:26:15;;;;;;;18.65;7.07;;;30.90;99.90;;;;;;5041143;28;20022;-69
2022/07/13 07:28:41;;;;;;;16.83;7.25;;;30.90;99.90;;;;;;5037721;28;20064;-71
2022/07/13 07:31:13;;;;;;;17.77;7.10;;;30.90;99.90;;;;;;5043434;28;20041;-72
2022/07/13 07:33:39;;;;;;;10.90;6.43;;;31.00;99.90;;;;;;5043575;28;20029;-72
2022/07/13 07:36:06;;;;;;;12.20;7.35;;;31.00;99.90;;;;;;5040856;28;20079;-72
2022/07/13 07:38:33;;;;;;;11.77;7.63;;;30.90;99.90;;;;;;5043791;28;20013;-71
2022/07/13 07:41:01;;;;;;;10.48;7.18;;;31.00;99.90;;;;;;5052518;28;20017;-72
2022/07/13 07:43:27;;;;;;;17.50;7.82;;;31.00;99.90;;;;;;5044896;28;20029;-69
2022/07/13 07:45:54;;;;;;;12.50;7.22;;;31.00;99.90;;;;;;5035038;28;20017;-67
2022/07/13 07:48:20;;;;;;;10.25;7.00;;;31.00;99.90;;;;;;5037642;28;20441;-66
2022/07/13 07:50:47;;;;;;;16.65;7.53;;;31.00;99.90;;;;;;5043473;28;20049;-68
2022/07/13 07:53:13;;;;;;;16.23;8.30;;;31.00;99.90;;;;;;5041988;28;20036;-69
2022/07/13 07:55:40;;;;;;;14.43;7.75;;;30.90;99.90;;;;;;5043348;28;20053;-70
2022/07/13 07:58:08;;;;;;;17.10;8.00;;;30.90;99.90;;;;;;5049026;28;20025;-69
2022/07/13 08:00:35;;;;;;;11.10;7.05;;;30.90;99.90;;;;;;5045262;28;20517;-66
2022/07/13 08:03:03;;;;;;;11.88;7.15;;;30.90;99.90;;;;;;5043487;28;20045;-68
2022/07/13 08:05:30;;;;;;;12.60;7.63;;;30.90;99.90;;;;;;5043708;28;20053;-69
2022/07/13 08:07:57;;;;;;;17.05;7.80;;;30.90;99.90;;;;;;5047569;28;20029;-68
2022/07/13 08:10:24;;;;;;;12.30;7.63;;;31.00;99.90;;;;;;5045866;28;20377;-70
2022/07/13 08:12:51;;;;;;;12.88;7.80;;;31.00;99.90;;;;;;5042357;28;20528;-71
2022/07/13 08:15:17;;;;;;;12.25;7.00;;;30.90;99.90;;;;;;5037393;28;20489;-70
2022/07/13 08:17:44;;;;;;;14.52;6.88;;;30.90;99.90;;;;;;5038794;28;20382;-70
2022/07/13 08:20:11;;;;;;;16.92;7.63;;;30.90;99.90;;;;;;5039587;28;20033;-66
2022/07/13 08:22:38;;;;;;;11.02;7.28;;;30.90;99.90;;;;;;5039102;28;20036;-67
2022/07/13 08:25:05;;;;;;;14.02;7.93;;;30.80;99.90;;;;;;5038874;28;20172;-69
2022/07/13 08:27:32;;;;;;;13.23;8.07;;;30.90;99.90;;;;;;5048656;28;20088;-68
2022/07/13 08:29:59;;;;;;;12.23;8.35;;;30.90;99.90;;;;;;5043217;28;20021;-69
2022/07/13 08:32:27;;;;;;;16.05;7.85;;;31.00;99.90;;;;;;5051183;28;20477;-73
2022/07/13 08:40:26;;;;;;;25.08;10.88;;;31.00;99.90;;;;;;5047802;28;20036;-69
2022/07/13 08:42:53;;;;;;;22.60;11.63;;;31.00;99.90;;;;;;5046662;28;20018;-69
2022/07/13 08:45:20;;;;;;;25.25;10.32;;;31.00;99.90;;;;;;5043281;28;20017;-70
2022/07/13 08:47:48;;;;;;;24.35;11.13;;;30.90;99.90;;;;;;5043409;28;20021;-69
2022/07/13 08:50:15;;;;;;;19.98;11.25;;;31.00;99.90;;;;;;5047585;28;20036;-67
2022/07/13 08:52:42;;;;;;;15.32;8.55;;;30.90;99.90;;;;;;5048827;28;20374;-67
2022/07/13 08:55:11;;;;;;;19.60;8.23;;;30.70;99.90;;;;;;5047429;28;20356;-69
2022/07/13 08:57:39;;;;;;;12.45;7.65;;;30.70;99.90;;;;;;5045914;28;20040;-71
2022/07/13 09:00:10;;;;;;;12.82;8.07;;;30.60;99.90;;;;;;5047226;28;20017;-69
2022/07/13 09:02:38;;;;;;;15.23;9.15;;;30.60;99.90;;;;;;5043676;28;20521;-67
2022/07/13 09:05:08;;;;;;;13.45;9.52;;;30.50;99.90;;;;;;5041623;28;20057;-68
2022/07/13 09:07:35;;;;;;;15.95;8.55;;;30.50;99.90;;;;;;5042131;28;20020;-69
2022/07/13 09:10:04;;;;;;;12.88;7.70;;;30.60;99.90;;;;;;5050355;28;20458;-66
2022/07/13 09:12:32;;;;;;;16.65;8.45;;;30.60;99.90;;;;;;5048503;28;20072;-69
2022/07/13 09:15:03;;;;;;;14.57;9.75;;;30.70;99.90;;;;;;5048797;28;20017;-69
2022/07/13 09:17:30;;;;;;;14.68;9.80;;;30.70;99.90;;;;;;5048744;28;20071;-68
2022/07/13 09:19:57;;;;;;;14.45;8.38;;;30.70;99.90;;;;;;5047512;28;21123;-67
2022/07/13 09:22:24;;;;;;;17.45;8.63;;;30.70;99.90;;;;;;5040870;28;20021;-67
2022/07/13 09:24:53;;;;;;;17.02;7.47;;;30.70;99.90;;;;;;5040275;28;20338;-71
2022/07/13 09:27:21;;;;;;;11.60;7.60;;;30.70;99.90;;;;;;5043337;28;20060;-69
2022/07/13 09:29:48;;;;;;;16.95;8.35;;;30.80;99.90;;;;;;5036080;28;20077;-69
2022/07/13 09:32:15;;;;;;;18.20;10.43;;;30.80;99.90;;;;;;5050337;28;20047;-71
2022/07/13 09:34:52;;;;;;;17.63;9.88;;;30.80;99.90;;;;;;5044595;28;20092;-70
2022/07/13 09:37:22;;;;;;;13.13;8.52;;;30.80;99.90;;;;;;5044506;28;20419;-70
2022/07/13 09:39:59;;;;;;;13.35;9.00;;;30.80;99.90;;;;;;5045655;28;20029;-71
2022/07/13 09:42:27;;;;;;;22.48;13.88;;;30.80;99.90;;;;;;5041791;28;20053;-72
2022/07/13 09:47:53;;;;;;;32.65;23.98;;;30.70;99.90;;;;;;5039075;28;20021;-70
2022/07/13 09:50:24;;;;;;;27.60;15.90;;;30.80;99.90;;;;;;5047193;28;20036;-73
2022/07/13 09:52:52;;;;;;;105.60;83.20;;;30.70;99.90;;;;;;5055128;28;20033;-74
2022/07/13 09:55:22;;;;;;;19.98;13.02;;;30.80;99.90;;;;;;5056375;28;20243;-72
2022/07/13 09:57:55;;;;;;;16.80;10.32;;;30.80;99.90;;;;;;5049860;28;20034;-71
2022/07/13 10:00:22;;;;;;;15.38;9.75;;;30.70;99.90;;;;;;5044188;28;20021;-68
2022/07/13 10:02:50;;;;;;;15.80;10.77;;;30.70;99.90;;;;;;5036286;28;20370;-66
2022/07/13 10:05:19;;;;;;;34.60;26.60;;;30.60;99.90;;;;;;5035030;28;20560;-68
2022/07/13 10:07:48;;;;;;;28.25;14.30;;;30.60;99.90;;;;;;5034942;28;20029;-66
2022/07/13 10:10:16;;;;;;;26.50;16.25;;;30.60;99.90;;;;;;5046104;28;20416;-66
2022/07/13 10:12:44;;;;;;;22.85;15.48;;;30.50;99.90;;;;;;5044849;28;20492;-66
2022/07/13 10:15:12;;;;;;;42.72;21.92;;;30.50;99.90;;;;;;5043117;28;20040;-67
2022/07/13 10:17:46;;;;;;;29.55;17.85;;;30.50;99.90;;;;;;5042939;28;20021;-66
2022/07/13 10:20:16;;;;;;;29.98;20.27;;;30.40;99.90;;;;;;5043381;28;20100;-66
2022/07/13 10:22:45;;;;;;;48.22;35.38;;;30.40;99.90;;;;;;5042436;28;20493;-67
2022/07/13 10:25:13;;;;;;;29.95;17.75;;;30.40;99.90;;;;;;5043203;28;20040;-65
2022/07/13 10:27:42;;;;;;;22.15;12.77;;;30.40;99.90;;;;;;5048077;28;20418;-64
2022/07/13 10:30:22;;;;;;;18.17;10.85;;;30.40;99.90;;;;;;5047795;28;20033;-66
2022/07/13 10:32:49;;;;;;;22.27;9.45;;;30.40;99.90;;;;;;5047071;28;20021;-66
2022/07/13 10:35:17;;;;;;;17.13;10.07;;;30.30;99.90;;;;;;5044801;28;20082;-68
2022/07/13 10:38:01;;;;;;;18.77;10.20;;;30.40;99.90;;;;;;5046816;28;20055;-66
2022/07/13 10:40:31;;;;;;;23.08;11.82;;;30.30;99.90;;;;;;5042098;28;20028;-68
2022/07/13 10:42:58;;;;;;;25.08;12.90;;;30.40;99.90;;;;;;5037677;28;20033;-69
2022/07/13 10:45:38;;;;;;;22.92;14.40;;;30.30;99.90;;;;;;5041918;28;20044;-68
2022/07/13 10:48:10;;;;;;;81.15;60.67;;;30.40;99.90;;;;;;5041303;28;20029;-68
2022/07/13 10:50:45;;;;;;;39.92;28.55;;;30.30;99.90;;;;;;5042475;28;20029;-68
2022/07/13 10:53:12;;;;;;;61.65;35.38;;;30.30;99.90;;;;;;5041759;28;20479;-71
2022/07/13 10:55:48;;;;;;;29.25;14.27;;;30.30;99.90;;;;;;5041928;28;20501;-72
2022/07/13 10:58:45;;;;;;;36.85;23.65;;;30.30;99.90;;;;;;5043313;28;20084;-72
2022/07/13 11:01:33;;;;;;;36.45;26.30;;;30.20;99.90;;;;;;5046253;28;20107;-72
2022/07/13 11:04:00;;;;;;;32.80;18.65;;;30.20;99.90;;;;;;5046442;28;20492;-71
2022/07/13 11:06:29;;;;;;;33.50;18.30;;;30.10;99.90;;;;;;5046085;28;20052;-71
2022/07/13 11:09:18;;;;;;;35.40;18.58;;;30.10;99.90;;;;;;5043326;28;20040;-74
2022/07/13 11:11:54;;;;;;;28.90;15.68;;;30.10;99.90;;;;;;5043965;28;20128;-72
2022/07/13 11:14:50;;;;;;;26.60;15.10;;;30.00;99.90;;;;;;5042130;28;20017;-73
2022/07/13 11:17:19;;;;;;;26.77;13.90;;;30.00;99.90;;;;;;4990264;28;20555;-72
2022/07/13 11:19:56;;;;;;;25.20;14.63;;;30.00;99.90;;;;;;4990784;28;20034;-72
2022/07/13 11:22:26;;;;;;;36.75;21.38;;;30.00;99.90;;;;;;4989394;28;20157;-71
2022/07/13 11:25:23;;;;;;;25.20;13.43;;;30.00;99.90;;;;;;4989789;28;20038;-69
2022/07/13 11:27:56;;;;;;;24.10;13.30;;;29.90;99.90;;;;;;4991060;28;20483;-76
2022/07/13 11:30:29;;;;;;;29.13;15.00;;;29.90;99.90;;;;;;4989216;28;20081;-68
2022/07/13 11:32:56;;;;;;;34.60;19.02;;;29.90;99.90;;;;;;4990138;28;20097;-67
2022/07/13 11:35:24;;;;;;;31.75;17.27;;;29.90;99.90;;;;;;4992062;28;20034;-68
2022/07/13 11:37:51;;;;;;;33.60;20.50;;;29.90;99.90;;;;;;4990348;28;20414;-67
2022/07/13 11:40:30;;;;;;;39.17;19.10;;;29.90;99.90;;;;;;4988764;28;20510;-68
2022/07/13 11:43:00;;;;;;;38.83;18.23;;;29.90;99.90;;;;;;4992892;28;20662;-66
2022/07/13 11:45:31;;;;;;;31.98;16.75;;;29.90;99.90;;;;;;4994370;28;20034;-68
2022/07/13 11:48:02;;;;;;;33.15;17.70;;;29.90;99.90;;;;;;5019614;28;20038;-67
2022/07/13 11:50:41;;;;;;;36.55;18.13;;;29.90;99.90;;;;;;5049068;28;20112;-70
2022/07/13 11:53:10;;;;;;;32.47;17.20;;;29.90;99.90;;;;;;5053153;28;20024;-68
2022/07/13 11:55:36;;;;;;;31.55;17.63;;;29.80;99.90;;;;;;5053240;28;20473;-71
2022/07/13 11:58:03;;;;;;;30.20;17.60;;;29.70;99.90;;;;;;5053287;28;20032;-72
2022/07/13 12:00:30;;;;;;;34.78;20.75;;;29.80;99.90;;;;;;5046054;28;20029;-71
2022/07/13 12:02:57;;;;;;;88.22;59.08;;;29.90;99.90;;;;;;5047470;28;20024;-68
2022/07/13 12:05:26;;;;;;;60.83;35.13;;;29.90;99.90;;;;;;5047445;28;20045;-67
2022/07/13 12:08:12;;;;;;;223.50;156.18;;;29.90;99.90;;;;;;5046943;28;20374;-66
2022/07/13 12:10:39;;;;;;;46.58;30.88;;;29.80;99.90;;;;;;5043667;28;20026;-68
2022/07/13 12:13:06;;;;;;;32.30;23.20;;;29.80;99.90;;;;;;5045552;28;20028;-67
2022/07/13 12:15:33;;;;;;;62.08;44.72;;;29.70;99.90;;;;;;5048283;28;20020;-67
2022/07/13 12:18:05;;;;;;;27.25;17.45;;;29.70;99.90;;;;;;5043858;28;20067;-66
2022/07/13 12:20:34;;;;;;;21.63;12.77;;;29.70;99.90;;;;;;5046390;28;20029;-67
2022/07/13 12:23:00;;;;;;;21.00;11.60;;;29.70;99.90;;;;;;5049009;28;20029;-72
2022/07/13 12:25:32;;;;;;;24.50;12.27;;;29.70;99.90;;;;;;5056421;28;20461;-71
2022/07/13 12:28:00;;;;;;;71.57;46.03;;;29.70;99.90;;;;;;5056438;28;20029;-68
2022/07/13 12:30:27;;;;;;;57.75;38.22;;;29.60;99.90;;;;;;5056159;28;20370;-69
2022/07/13 12:33:08;;;;;;;33.75;21.73;;;29.60;99.90;;;;;;5056078;28;20100;-72
2022/07/13 12:35:36;;;;;;;23.63;15.30;;;29.70;99.90;;;;;;5036101;28;20147;-68
2022/07/13 12:38:09;;;;;;;22.60;12.60;;;29.60;99.90;;;;;;5036252;28;20493;-68
2022/07/13 12:40:51;;;;;;;20.73;11.48;;;29.50;99.90;;;;;;5036208;28;20034;-68
2022/07/13 12:43:28;;;;;;;20.98;10.73;;;29.50;99.90;;;;;;5047429;28;20496;-67
2022/07/13 12:45:57;;;;;;;20.35;12.13;;;29.50;99.90;;;;;;5056177;28;20035;-69
2022/07/13 12:48:33;;;;;;;21.20;12.52;;;29.50;99.90;;;;;;5056263;28;20029;-67